createdAt,value
2022-12-06T00:01:09.244Z,5.65
2022-12-06T00:03:37.114Z,5.66
2022-12-06T00:06:06.828Z,5.67
2022-12-06T00:08:33.557Z,5.68
2022-12-06T00:11:12.772Z,5.70
2022-12-06T00:13:41.075Z,5.73
2022-12-06T00:16:11.877Z,5.72
2022-12-06T00:18:41.247Z,5.73
2022-12-06T00:21:22.389Z,5.74
2022-12-06T00:23:52.078Z,5.74
2022-12-06T00:26:19.922Z,5.74
2022-12-06T00:28:46.883Z,5.72
2022-12-06T00:31:18.696Z,5.70
2022-12-06T00:33:45.473Z,5.70
2022-12-06T00:36:17.963Z,5.72
2022-12-06T00:38:45.515Z,5.69
2022-12-06T00:41:17.585Z,5.68
2022-12-06T00:43:45.179Z,5.65
2022-12-06T00:46:20.138Z,5.66
2022-12-06T00:48:48.214Z,5.65
2022-12-06T00:51:16.702Z,5.64
2022-12-06T00:53:46.986Z,5.64
2022-12-06T00:56:14.060Z,5.65
2022-12-06T00:58:40.864Z,5.63
2022-12-06T01:01:22.735Z,5.60
2022-12-06T01:03:52.259Z,5.58
2022-12-06T01:06:22.798Z,5.54
2022-12-06T01:08:49.824Z,5.51
2022-12-06T01:11:16.694Z,5.51
2022-12-06T01:13:43.910Z,5.48
2022-12-06T01:16:16.040Z,5.46
2022-12-06T01:18:43.738Z,5.43
2022-12-06T01:21:13.515Z,5.38
2022-12-06T01:23:40.114Z,5.35
2022-12-06T01:26:07.787Z,5.32
2022-12-06T01:28:34.611Z,5.28
2022-12-06T01:31:07.403Z,5.25
2022-12-06T01:33:34.307Z,5.23
2022-12-06T01:36:01.066Z,5.25
2022-12-06T01:38:27.887Z,5.26
2022-12-06T01:40:54.727Z,5.28
2022-12-06T01:43:34.335Z,5.28
2022-12-06T01:46:21.731Z,5.28
2022-12-06T01:48:52.668Z,5.28
2022-12-06T01:51:19.768Z,5.29
2022-12-06T01:53:49.440Z,5.30
2022-12-06T01:56:16.341Z,5.31
2022-12-06T01:58:45.314Z,5.33
2022-12-06T02:01:12.082Z,5.35
2022-12-06T02:03:39.256Z,5.37
2022-12-06T02:06:08.404Z,5.38
2022-12-06T02:08:36.739Z,5.43
2022-12-06T02:11:04.456Z,5.48
2022-12-06T02:13:33.808Z,5.49
2022-12-06T02:16:00.465Z,5.50
2022-12-06T02:18:41.274Z,5.50
2022-12-06T02:21:20.879Z,5.50
2022-12-06T02:24:18.396Z,5.51
2022-12-06T02:26:51.968Z,5.51
2022-12-06T02:29:24.542Z,5.53
2022-12-06T02:32:03.357Z,5.53
2022-12-06T02:34:33.788Z,5.53
2022-12-06T02:37:24.490Z,5.54
2022-12-06T02:40:15.909Z,5.55
2022-12-06T02:42:53.895Z,5.57
2022-12-06T02:45:27.928Z,5.56
2022-12-06T02:47:58.258Z,5.57
2022-12-06T02:50:31.751Z,5.56
2022-12-06T02:53:02.177Z,5.57
2022-12-06T02:55:30.981Z,5.58
2022-12-06T02:57:57.728Z,5.58
2022-12-06T03:03:11.054Z,5.58
2022-12-06T03:05:50.048Z,5.60
2022-12-06T03:08:31.205Z,5.58
2022-12-06T03:11:01.273Z,5.55
2022-12-06T03:13:39.635Z,5.53
2022-12-06T03:16:17.447Z,5.51
2022-12-06T03:18:53.419Z,5.50
2022-12-06T03:21:27.774Z,5.48
2022-12-06T03:23:55.202Z,5.48
2022-12-06T03:26:27.811Z,5.46
2022-12-06T03:28:58.150Z,5.44
2022-12-06T03:31:27.705Z,5.40
2022-12-06T03:34:02.480Z,5.39
2022-12-06T03:36:31.909Z,5.40
2022-12-06T03:39:02.555Z,5.39
2022-12-06T03:41:37.390Z,5.39
2022-12-06T03:44:04.987Z,5.39
2022-12-06T03:46:35.844Z,5.39
2022-12-06T03:49:10.373Z,5.39
2022-12-06T03:51:39.444Z,5.38
2022-12-06T03:54:07.513Z,5.39
2022-12-06T03:56:36.800Z,5.41
2022-12-06T03:59:11.427Z,5.41
2022-12-06T04:01:39.386Z,5.40
2022-12-06T04:04:06.243Z,5.40
2022-12-06T04:06:34.155Z,5.40
2022-12-06T04:09:19.424Z,5.41
2022-12-06T04:11:46.290Z,5.41
2022-12-06T04:14:13.235Z,5.41
2022-12-06T04:17:00.457Z,5.41
2022-12-06T04:19:27.093Z,5.41
2022-12-06T04:22:12.144Z,5.43
2022-12-06T04:24:38.778Z,5.43
2022-12-06T04:27:23.960Z,5.42
2022-12-06T04:30:09.138Z,5.42
2022-12-06T04:32:54.033Z,5.41
2022-12-06T04:35:39.094Z,5.40
2022-12-06T04:38:24.539Z,5.40
2022-12-06T04:40:51.202Z,5.38
2022-12-06T04:43:36.394Z,5.38
2022-12-06T04:46:03.131Z,5.35
2022-12-06T04:48:31.002Z,5.36
2022-12-06T04:50:57.630Z,5.34
2022-12-06T04:53:24.337Z,5.31
2022-12-06T04:55:53.773Z,5.32
2022-12-06T04:58:20.362Z,5.32
2022-12-06T05:00:47.064Z,5.31
2022-12-06T05:03:15.041Z,5.32
2022-12-06T05:05:42.595Z,5.32
2022-12-06T05:08:10.154Z,5.33
2022-12-06T05:10:37.293Z,5.33
2022-12-06T05:13:04.414Z,5.32
2022-12-06T05:15:31.561Z,5.33
2022-12-06T05:17:58.383Z,5.32
2022-12-06T05:20:25.217Z,5.31
2022-12-06T05:22:51.906Z,5.30
2022-12-06T05:25:20.522Z,5.31
2022-12-06T05:27:47.234Z,5.32
2022-12-06T05:30:14.352Z,5.34
2022-12-06T05:32:41.005Z,5.34
2022-12-06T05:35:08.240Z,5.36
2022-12-06T05:37:34.940Z,5.36
2022-12-06T05:40:02.008Z,5.35
2022-12-06T05:42:28.928Z,5.34
2022-12-06T05:44:55.508Z,5.34
2022-12-06T05:47:22.179Z,5.35
2022-12-06T05:49:48.778Z,5.36
2022-12-06T05:52:15.520Z,5.35
2022-12-06T05:54:42.344Z,5.36
2022-12-06T05:57:08.921Z,5.37
2022-12-06T05:59:35.547Z,5.39
2022-12-06T06:02:02.328Z,5.40
2022-12-06T06:04:29.112Z,5.40
2022-12-06T06:06:55.831Z,5.38
2022-12-06T06:09:23.420Z,5.37
2022-12-06T06:11:50.046Z,5.36
2022-12-06T06:14:16.683Z,5.38
2022-12-06T06:16:43.747Z,5.38
2022-12-06T06:19:10.488Z,5.36
2022-12-06T06:21:37.111Z,5.35
2022-12-06T06:24:03.968Z,5.34
2022-12-06T06:26:30.697Z,5.34
2022-12-06T06:28:57.335Z,5.29
2022-12-06T06:31:24.008Z,5.29
2022-12-06T06:33:50.683Z,5.29
2022-12-06T06:36:17.362Z,5.30
2022-12-06T06:38:44.040Z,5.30
2022-12-06T06:41:12.348Z,5.31
2022-12-06T06:43:38.942Z,5.32
2022-12-06T06:46:07.226Z,5.30
2022-12-06T06:48:36.851Z,5.29
2022-12-06T06:51:05.865Z,5.29
2022-12-06T06:53:33.073Z,5.28
2022-12-06T06:55:59.676Z,5.29
2022-12-06T06:58:26.431Z,5.29
2022-12-06T07:00:57.892Z,5.30
2022-12-06T07:03:25.631Z,5.31
2022-12-06T07:05:58.902Z,5.32
2022-12-06T07:08:27.574Z,5.30
2022-12-06T07:10:54.706Z,5.29
2022-12-06T07:13:22.944Z,5.28
2022-12-06T07:15:49.923Z,5.26
2022-12-06T07:18:19.599Z,5.25
2022-12-06T07:20:47.942Z,5.28
2022-12-06T07:23:15.647Z,5.29
2022-12-06T07:25:42.273Z,5.30
2022-12-06T07:28:09.353Z,5.31
2022-12-06T07:30:36.054Z,5.29
2022-12-06T07:33:02.727Z,5.29
2022-12-06T07:35:48.567Z,5.28
2022-12-06T07:38:16.035Z,5.28
2022-12-06T07:43:47.711Z,5.23
2022-12-06T07:46:14.402Z,5.19
2022-12-06T07:48:41.019Z,5.13
2022-12-06T07:51:08.014Z,5.06
2022-12-06T07:53:34.792Z,4.99
2022-12-06T07:56:08.199Z,4.90
2022-12-06T07:58:34.871Z,4.83
2022-12-06T08:01:04.257Z,4.71
2022-12-06T08:03:31.291Z,4.68
2022-12-06T08:05:58.159Z,4.61
2022-12-06T08:08:28.455Z,4.54
2022-12-06T08:11:00.160Z,4.51
2022-12-06T08:13:27.008Z,4.50
2022-12-06T08:15:53.720Z,4.51
2022-12-06T08:18:20.526Z,4.55
2022-12-06T08:20:47.179Z,4.57
2022-12-06T08:23:14.039Z,4.63
2022-12-06T08:25:40.880Z,4.66
2022-12-06T08:28:07.507Z,4.68
2022-12-06T08:30:34.280Z,4.71
2022-12-06T08:33:00.998Z,4.71
2022-12-06T08:35:27.657Z,4.70
2022-12-06T08:37:54.358Z,4.71
2022-12-06T08:40:21.120Z,4.72
2022-12-06T08:42:47.812Z,4.71
2022-12-06T08:45:14.411Z,4.73
2022-12-06T08:47:41.075Z,4.74
2022-12-06T08:50:08.040Z,4.77
2022-12-06T08:52:35.037Z,4.83
2022-12-06T08:55:01.853Z,4.85
2022-12-06T08:57:28.498Z,4.88
2022-12-06T08:59:55.665Z,4.91
2022-12-06T09:02:22.306Z,4.93
2022-12-06T09:04:51.725Z,4.94
2022-12-06T09:07:19.043Z,4.91
2022-12-06T09:09:46.378Z,4.87
2022-12-06T09:12:13.722Z,4.83
2022-12-06T09:14:40.839Z,4.80
2022-12-06T09:17:07.605Z,4.76
2022-12-06T09:19:34.908Z,4.80
2022-12-06T09:22:01.855Z,4.84
2022-12-06T09:24:28.569Z,4.88
2022-12-06T09:26:55.312Z,4.91
2022-12-06T09:29:22.516Z,4.97
2022-12-06T09:31:49.432Z,5.02
2022-12-06T09:34:17.299Z,5.08
2022-12-06T09:36:49.681Z,5.15
2022-12-06T09:39:18.393Z,5.20
2022-12-06T09:42:16.012Z,5.23
2022-12-06T09:45:10.370Z,5.27
2022-12-06T09:47:58.479Z,5.31
2022-12-06T09:50:28.024Z,5.31
2022-12-06T09:53:00.372Z,5.33
2022-12-06T09:55:41.920Z,5.36
2022-12-06T09:58:39.334Z,5.39
2022-12-06T10:01:24.723Z,5.42
2022-12-06T10:04:08.037Z,5.49
2022-12-06T10:06:44.722Z,5.55
2022-12-06T10:09:32.300Z,5.61
2022-12-06T10:12:36.709Z,5.67
2022-12-06T10:15:32.638Z,5.74
2022-12-06T10:18:17.814Z,5.76
2022-12-06T10:21:04.863Z,5.81
2022-12-06T10:24:01.636Z,5.85
2022-12-06T10:26:53.306Z,5.84
2022-12-06T10:29:29.375Z,5.86
2022-12-06T10:31:57.018Z,5.89
2022-12-06T10:34:49.607Z,5.93
2022-12-06T10:37:25.773Z,5.92
2022-12-06T10:40:12.513Z,5.93
2022-12-06T10:42:45.218Z,5.94
2022-12-06T10:45:41.616Z,5.96
2022-12-06T10:48:20.950Z,5.97
2022-12-06T10:50:55.875Z,6.02
2022-12-06T10:53:31.916Z,6.09
2022-12-06T10:56:07.288Z,6.15
2022-12-06T10:58:46.572Z,6.20
2022-12-06T11:01:26.322Z,6.26
2022-12-06T11:04:02.420Z,6.34
2022-12-06T11:06:49.991Z,6.29
2022-12-06T11:09:32.183Z,6.23
2022-12-06T11:11:59.695Z,6.17
2022-12-06T11:14:54.482Z,6.05
2022-12-06T11:17:24.411Z,6.02
2022-12-06T11:19:56.872Z,6.06
2022-12-06T11:23:11.222Z,6.24
2022-12-06T11:26:00.342Z,6.35
2022-12-06T11:28:38.438Z,6.39
2022-12-06T11:31:31.259Z,6.34
2022-12-06T11:33:59.260Z,6.33
2022-12-06T11:36:27.177Z,6.32
2022-12-06T11:38:53.883Z,6.34
2022-12-06T11:41:27.884Z,6.34
2022-12-06T11:43:56.323Z,6.32
2022-12-06T11:46:24.234Z,6.30
2022-12-06T11:48:51.495Z,6.29
2022-12-06T11:51:24.411Z,6.28
2022-12-06T11:53:54.771Z,6.26
2022-12-06T11:56:27.528Z,6.21
2022-12-06T11:59:08.022Z,6.15
2022-12-06T12:01:44.582Z,6.11
2022-12-06T12:04:26.332Z,6.06
2022-12-06T12:07:02.742Z,5.96
2022-12-06T12:09:35.513Z,5.92
2022-12-06T12:12:13.044Z,5.84
2022-12-06T12:14:43.193Z,5.82
2022-12-06T12:17:19.411Z,5.80
2022-12-06T12:19:59.118Z,5.80
2022-12-06T12:22:35.809Z,5.78
2022-12-06T12:25:27.639Z,5.76
2022-12-06T12:27:58.945Z,5.76
2022-12-06T12:30:53.577Z,5.79
2022-12-06T12:33:22.993Z,5.82
2022-12-06T12:36:04.862Z,5.82
2022-12-06T12:38:31.429Z,5.82
2022-12-06T12:41:19.178Z,5.78
2022-12-06T12:47:14.006Z,5.75
2022-12-06T12:49:41.115Z,5.72
2022-12-06T12:52:28.309Z,5.68
2022-12-06T12:55:21.086Z,5.65
2022-12-06T12:57:51.955Z,5.61
2022-12-06T13:00:24.990Z,5.60
2022-12-06T13:03:00.939Z,5.61
2022-12-06T13:05:39.642Z,5.64
2022-12-06T13:08:15.887Z,5.70
2022-12-06T13:10:47.136Z,5.77
2022-12-06T13:13:26.484Z,5.82
2022-12-06T13:15:56.588Z,5.86
2022-12-06T13:18:41.375Z,5.95
2022-12-06T13:21:27.870Z,6.01
2022-12-06T13:24:17.545Z,6.11
2022-12-06T13:26:55.844Z,6.18
2022-12-06T13:29:25.613Z,6.25
2022-12-06T13:31:54.846Z,6.29
2022-12-06T13:34:39.263Z,6.33
2022-12-06T13:37:29.307Z,6.38
2022-12-06T13:39:57.114Z,6.39
2022-12-06T13:42:45.724Z,6.36
2022-12-06T13:45:34.553Z,6.32
2022-12-06T13:48:01.280Z,6.27
2022-12-06T13:50:29.342Z,6.25
2022-12-06T13:52:55.994Z,6.22
2022-12-06T13:55:25.539Z,6.20
2022-12-06T13:57:55.090Z,6.21
2022-12-06T14:00:31.017Z,6.20
2022-12-06T14:03:19.433Z,6.24
2022-12-06T14:06:14.728Z,6.28
2022-12-06T14:08:59.545Z,6.34
2022-12-06T14:11:36.627Z,6.34
2022-12-06T14:14:15.295Z,6.37
2022-12-06T14:16:44.068Z,6.38
2022-12-06T14:19:18.035Z,6.38
2022-12-06T14:22:16.847Z,6.38
2022-12-06T14:25:07.847Z,6.38
2022-12-06T14:27:45.795Z,6.45
2022-12-06T14:30:22.054Z,6.47
2022-12-06T14:32:55.029Z,6.44
2022-12-06T14:35:36.148Z,6.43
2022-12-06T14:38:21.426Z,6.42
2022-12-06T14:41:07.278Z,6.41
2022-12-06T14:43:35.395Z,6.41
2022-12-06T14:46:05.906Z,6.42
2022-12-06T14:48:52.260Z,6.41
2022-12-06T14:51:25.555Z,6.39
2022-12-06T14:53:52.256Z,6.37
2022-12-06T14:56:30.809Z,6.37
2022-12-06T14:58:59.331Z,6.33
2022-12-06T15:01:28.902Z,6.30
2022-12-06T15:04:04.183Z,6.23
2022-12-06T15:06:33.276Z,6.18
2022-12-06T15:08:59.895Z,6.17
2022-12-06T15:11:48.186Z,6.16
2022-12-06T15:14:16.946Z,6.13
2022-12-06T15:16:54.818Z,6.14
2022-12-06T15:19:21.621Z,6.16
2022-12-06T15:21:55.360Z,6.19
2022-12-06T15:24:27.287Z,6.19
2022-12-06T15:26:54.461Z,6.19
2022-12-06T15:29:21.843Z,6.17
2022-12-06T15:31:51.556Z,6.16
2022-12-06T15:34:20.840Z,6.17
2022-12-06T15:36:48.379Z,6.17
2022-12-06T15:39:15.164Z,6.12
2022-12-06T15:41:42.526Z,6.12
2022-12-06T15:44:17.870Z,6.09
2022-12-06T15:46:45.583Z,6.06
2022-12-06T15:49:18.186Z,6.02
2022-12-06T15:51:46.314Z,5.99
2022-12-06T15:54:19.061Z,5.92
2022-12-06T15:56:47.166Z,5.80
2022-12-06T15:59:14.539Z,5.72
2022-12-06T16:01:49.673Z,5.63
2022-12-06T16:04:18.733Z,5.57
2022-12-06T16:06:46.261Z,5.50
2022-12-06T16:09:15.386Z,5.46
2022-12-06T16:11:42.365Z,5.42
2022-12-06T16:14:10.083Z,5.41
2022-12-06T16:16:43.063Z,5.38
2022-12-06T16:19:10.565Z,5.36
2022-12-06T16:21:51.797Z,5.33
2022-12-06T16:24:18.462Z,5.33
2022-12-06T16:26:45.879Z,5.33
2022-12-06T16:29:20.599Z,5.30
2022-12-06T16:31:47.475Z,5.26
2022-12-06T16:34:14.813Z,5.22
2022-12-06T16:37:13.770Z,5.16
2022-12-06T16:39:40.480Z,5.13
2022-12-06T16:42:07.208Z,5.04
2022-12-06T16:44:51.149Z,5.00
2022-12-06T16:47:18.054Z,4.93
2022-12-06T16:49:46.835Z,4.90
2022-12-06T16:52:15.648Z,4.88
2022-12-06T16:54:42.579Z,4.86
2022-12-06T16:57:11.915Z,4.89
2022-12-06T16:59:38.657Z,4.89
2022-12-06T17:02:23.294Z,4.90
2022-12-06T17:04:50.029Z,4.91
2022-12-06T17:07:16.663Z,4.91
2022-12-06T17:09:43.493Z,4.90
2022-12-06T17:12:15.166Z,4.87
2022-12-06T17:14:42.143Z,4.81
2022-12-06T17:17:17.230Z,4.74
2022-12-06T17:19:43.928Z,4.68
2022-12-06T17:22:11.454Z,4.65
2022-12-06T17:24:38.688Z,4.61
2022-12-06T17:27:07.008Z,4.58
2022-12-06T17:29:34.331Z,4.54
2022-12-06T17:32:01.317Z,4.52
2022-12-06T17:34:28.083Z,4.49
2022-12-06T17:36:56.067Z,4.51
2022-12-06T17:39:22.806Z,4.50
2022-12-06T17:42:08.288Z,4.49
2022-12-06T17:44:35.222Z,4.50
2022-12-06T17:47:02.554Z,4.50
2022-12-06T17:49:29.300Z,4.51
2022-12-06T17:51:56.411Z,4.50
2022-12-06T17:54:23.311Z,4.52
2022-12-06T17:56:54.091Z,4.52
2022-12-06T17:59:23.638Z,4.56
2022-12-06T18:02:14.275Z,4.58
2022-12-06T18:04:38.723Z,4.57
2022-12-06T18:07:05.362Z,4.55
2022-12-06T18:09:31.986Z,4.54
2022-12-06T18:12:01.097Z,4.53
2022-12-06T18:14:28.324Z,4.53
2022-12-06T18:16:55.696Z,4.56
2022-12-06T18:19:23.325Z,4.58
2022-12-06T18:21:52.337Z,4.58
2022-12-06T18:24:22.739Z,4.58
2022-12-06T18:26:51.697Z,4.59
2022-12-06T18:29:23.427Z,4.60
2022-12-06T18:31:51.597Z,4.62
2022-12-06T18:34:18.604Z,4.64
2022-12-06T18:36:45.404Z,4.67
2022-12-06T18:39:15.880Z,4.67
2022-12-06T18:41:46.423Z,4.66
2022-12-06T18:44:13.743Z,4.66
2022-12-06T18:46:42.701Z,4.68
2022-12-06T18:49:11.214Z,4.69
2022-12-06T18:51:41.475Z,4.70
2022-12-06T18:54:10.810Z,4.70
2022-12-06T18:56:37.435Z,4.70
2022-12-06T18:59:05.953Z,4.73
2022-12-06T19:01:35.425Z,4.73
2022-12-06T19:04:03.920Z,4.74
2022-12-06T19:06:33.008Z,4.75
2022-12-06T19:09:08.160Z,4.73
2022-12-06T19:11:40.166Z,4.72
2022-12-06T19:14:09.047Z,4.69
2022-12-06T19:16:40.472Z,4.67
2022-12-06T19:19:16.507Z,4.65
2022-12-06T19:21:45.195Z,4.66
2022-12-06T19:24:13.176Z,4.65
2022-12-06T19:26:41.611Z,4.66
2022-12-06T19:29:08.670Z,4.65
2022-12-06T19:31:35.646Z,4.67
2022-12-06T19:34:02.302Z,4.68
2022-12-06T19:36:30.750Z,4.67
2022-12-06T19:39:03.121Z,4.66
2022-12-06T19:41:30.127Z,4.64
2022-12-06T19:44:15.392Z,4.61
2022-12-06T19:46:44.303Z,4.55
2022-12-06T19:49:13.061Z,4.48
2022-12-06T19:51:44.359Z,4.44
2022-12-06T19:54:15.478Z,4.39
2022-12-06T19:56:42.164Z,4.37
2022-12-06T19:59:11.781Z,4.36
2022-12-06T20:01:40.912Z,4.31
2022-12-06T20:04:09.597Z,4.30
2022-12-06T20:06:36.693Z,4.30
2022-12-06T20:09:04.237Z,4.31
2022-12-06T20:11:49.650Z,4.32
2022-12-06T20:14:18.278Z,4.30
2022-12-06T20:16:45.212Z,4.32
2022-12-06T20:19:15.473Z,4.32
2022-12-06T20:21:42.818Z,4.35
2022-12-06T20:24:11.188Z,4.38
2022-12-06T20:26:38.182Z,4.38
2022-12-06T20:29:05.093Z,4.39
2022-12-06T20:31:32.338Z,4.39
2022-12-06T20:34:01.324Z,4.39
2022-12-06T20:36:30.372Z,4.37
2022-12-06T20:38:57.475Z,4.36
2022-12-06T20:41:26.152Z,4.37
2022-12-06T20:43:53.436Z,4.38
2022-12-06T20:46:25.832Z,4.40
2022-12-06T20:48:53.110Z,4.39
2022-12-06T20:51:25.822Z,4.39
2022-12-06T20:53:54.192Z,4.37
2022-12-06T20:56:22.391Z,4.35
2022-12-06T20:58:51.951Z,4.31
2022-12-06T21:01:23.860Z,4.27
2022-12-06T21:03:52.365Z,4.24
2022-12-06T21:06:20.420Z,4.20
2022-12-06T21:08:47.671Z,4.15
2022-12-06T21:11:23.631Z,4.14
2022-12-06T21:13:55.044Z,4.10
2022-12-06T21:16:32.262Z,4.07
2022-12-06T21:19:01.991Z,4.03
2022-12-06T21:21:32.587Z,4.00
2022-12-06T21:24:00.845Z,3.98
2022-12-06T21:26:29.354Z,3.95
2022-12-06T21:28:58.435Z,3.93
2022-12-06T21:31:34.625Z,3.94
2022-12-06T21:34:01.918Z,3.93
2022-12-06T21:36:28.601Z,3.95
2022-12-06T21:38:55.781Z,3.96
2022-12-06T21:41:22.445Z,3.96
2022-12-06T21:43:49.544Z,3.94
2022-12-06T21:46:21.887Z,3.90
2022-12-06T21:48:52.724Z,3.85
2022-12-06T21:51:20.040Z,3.80
2022-12-06T21:53:46.796Z,3.79
2022-12-06T21:56:17.316Z,3.75
2022-12-06T21:58:44.738Z,3.75
2022-12-06T22:01:16.805Z,3.76
2022-12-06T22:03:44.650Z,3.77
2022-12-06T22:06:13.650Z,3.81
2022-12-06T22:08:59.083Z,3.82
2022-12-06T22:11:38.314Z,3.86
2022-12-06T22:14:05.474Z,3.88
2022-12-06T22:16:33.331Z,3.90
2022-12-06T22:19:00.057Z,3.92
2022-12-06T22:21:28.945Z,3.95
2022-12-06T22:23:59.670Z,3.95
2022-12-06T22:26:28.454Z,3.96
2022-12-06T22:28:55.353Z,3.98
2022-12-06T22:31:31.741Z,3.97
2022-12-06T22:34:00.676Z,3.96
2022-12-06T22:36:28.055Z,3.94
2022-12-06T22:38:57.128Z,3.89
2022-12-06T22:41:24.947Z,3.86
2022-12-06T22:43:53.730Z,3.83
2022-12-06T22:46:21.288Z,3.80
2022-12-06T22:48:49.540Z,3.76
2022-12-06T22:51:19.584Z,3.73
2022-12-06T22:53:48.853Z,3.71
2022-12-06T22:56:15.874Z,3.73
2022-12-06T22:58:42.881Z,3.74
2022-12-06T23:01:18.378Z,3.72
2022-12-06T23:03:47.073Z,3.71
2022-12-06T23:06:16.331Z,3.71
2022-12-06T23:08:43.653Z,3.72
2022-12-06T23:11:22.753Z,3.74
2022-12-06T23:13:49.676Z,3.74
2022-12-06T23:16:22.716Z,3.74
2022-12-06T23:18:49.504Z,3.77
2022-12-06T23:21:17.637Z,3.77
2022-12-06T23:23:52.570Z,3.80
2022-12-06T23:26:24.552Z,3.75
2022-12-06T23:28:51.604Z,3.74
2022-12-06T23:31:24.119Z,3.73
2022-12-06T23:33:56.291Z,3.73
2022-12-06T23:36:27.143Z,3.72
2022-12-06T23:38:53.931Z,3.73
2022-12-06T23:41:23.258Z,3.70
2022-12-06T23:43:50.400Z,3.70
2022-12-06T23:46:22.393Z,3.67
2022-12-06T23:48:49.980Z,3.62
2022-12-06T23:51:19.842Z,3.61
2022-12-06T23:53:51.240Z,3.58
2022-12-06T23:56:19.726Z,3.54
2022-12-06T23:58:48.770Z,3.51
